Terminal Aerodrome Forecast
Issued by NWS Indianapolis, IN

Home | Current Version | Previous Version | Text Only | Print | Product List | Glossary On
Versions: 1 2 3 4 5 6 7 8 9 10 11 12 13 14 15 16 17 18 19 20 21 22 23 24 25 26 27 28
735
FTUS43 KIND 051009 AAB
TAFIND
TAF AMD
KIND 051009Z 0510/0612 27007KT P6SM SCT008 OVC011
     FM051200 28005KT P6SM OVC008
     FM051500 VRB03KT P6SM BKN010
     FM051800 15004KT P6SM BKN060
     FM052000 13004KT P6SM SCT120
     FM060600 09006KT P6SM -RA OVC090
     FM061100 06006KT 6SM -RA OVC050=

USA.gov is the U.S. government's official web portal to all federal, state and local government web resources and services.